sensor_id;sensor_type;location;lat;lon;timestamp;pressure;altitude;pressure_sealevel;temperature;humidity
27623;BME280;15041;45.334;5.622;2023-12-07T00:01:07;99547.53;;;5.54;96.98
27623;BME280;15041;45.334;5.622;2023-12-07T00:03:35;99556.28;;;5.43;96.92
27623;BME280;15041;45.334;5.622;2023-12-07T00:06:01;99557.88;;;4.95;100.00
27623;BME280;15041;45.334;5.622;2023-12-07T00:08:28;99562.38;;;5.50;100.00
27623;BME280;15041;45.334;5.622;2023-12-07T00:10:57;99566.06;;;5.80;96.64
27623;BME280;15041;45.334;5.622;2023-12-07T00:13:24;99561.63;;;5.68;95.64
27623;BME280;15041;45.334;5.622;2023-12-07T00:15:51;99559.19;;;5.17;99.28
27623;BME280;15041;45.334;5.622;2023-12-07T00:18:18;99555.94;;;5.09;99.34
27623;BME280;15041;45.334;5.622;2023-12-07T00:20:46;99549.53;;;5.41;97.08
27623;BME280;15041;45.334;5.622;2023-12-07T00:23:13;99552.53;;;5.26;95.69
27623;BME280;15041;45.334;5.622;2023-12-07T00:25:40;99554.47;;;5.37;95.29
27623;BME280;15041;45.334;5.622;2023-12-07T00:28:08;99550.78;;;4.83;100.00
27623;BME280;15041;45.334;5.622;2023-12-07T00:30:36;99558.44;;;4.79;100.00
27623;BME280;15041;45.334;5.622;2023-12-07T00:33:03;99561.41;;;5.20;100.00
27623;BME280;15041;45.334;5.622;2023-12-07T00:35:30;99561.03;;;4.92;100.00
27623;BME280;15041;45.334;5.622;2023-12-07T00:37:57;99570.22;;;5.27;100.00
27623;BME280;15041;45.334;5.622;2023-12-07T00:40:24;99570.84;;;5.29;96.28
27623;BME280;15041;45.334;5.622;2023-12-07T00:42:51;99574.97;;;4.94;97.46
27623;BME280;15041;45.334;5.622;2023-12-07T00:45:20;99575.28;;;5.11;98.38
27623;BME280;15041;45.334;5.622;2023-12-07T00:47:47;99583.94;;;5.06;97.39
27623;BME280;15041;45.334;5.622;2023-12-07T00:50:14;99595.63;;;4.87;98.15
27623;BME280;15041;45.334;5.622;2023-12-07T00:52:41;99583.94;;;5.06;98.92
27623;BME280;15041;45.334;5.622;2023-12-07T00:55:09;99586.94;;;5.47;94.87
27623;BME280;15041;45.334;5.622;2023-12-07T00:57:36;99587.38;;;5.44;93.47
27623;BME280;15041;45.334;5.622;2023-12-07T01:00:04;99584.75;;;5.13;94.56
27623;BME280;15041;45.334;5.622;2023-12-07T01:02:33;99581.78;;;5.21;93.97
27623;BME280;15041;45.334;5.622;2023-12-07T01:05:00;99574.69;;;5.33;94.20
27623;BME280;15041;45.334;5.622;2023-12-07T01:07:27;99572.81;;;4.85;95.74
27623;BME280;15041;45.334;5.622;2023-12-07T01:09:55;99588.94;;;5.03;96.65
27623;BME280;15041;45.334;5.622;2023-12-07T01:12:22;99586.16;;;4.85;95.60
27623;BME280;15041;45.334;5.622;2023-12-07T01:14:49;99585.63;;;5.01;95.91
27623;BME280;15041;45.334;5.622;2023-12-07T01:17:17;99583.38;;;4.67;100.00
27623;BME280;15041;45.334;5.622;2023-12-07T01:19:46;99584.53;;;5.15;97.35
27623;BME280;15041;45.334;5.622;2023-12-07T01:22:13;99588.44;;;5.12;95.98
27623;BME280;15041;45.334;5.622;2023-12-07T01:24:40;99586.13;;;4.91;97.24
27623;BME280;15041;45.334;5.622;2023-12-07T01:27:07;99590.50;;;5.10;97.13
27623;BME280;15041;45.334;5.622;2023-12-07T01:29:34;99588.97;;;4.96;95.88
27623;BME280;15041;45.334;5.622;2023-12-07T01:32:01;99580.91;;;5.52;93.36
27623;BME280;15041;45.334;5.622;2023-12-07T01:34:30;99589.28;;;5.62;90.45
27623;BME280;15041;45.334;5.622;2023-12-07T01:36:59;99588.59;;;4.86;93.51
27623;BME280;15041;45.334;5.622;2023-12-07T01:39:26;99588.59;;;4.86;96.24
27623;BME280;15041;45.334;5.622;2023-12-07T01:41:53;99578.50;;;5.19;95.31
27623;BME280;15041;45.334;5.622;2023-12-07T01:44:21;99580.22;;;5.07;93.71
27623;BME280;15041;45.334;5.622;2023-12-07T01:46:48;99572.72;;;4.60;97.43
27623;BME280;15041;45.334;5.622;2023-12-07T01:49:15;99573.84;;;4.77;98.17
27623;BME280;15041;45.334;5.622;2023-12-07T01:51:43;99569.22;;;4.97;96.37
27623;BME280;15041;45.334;5.622;2023-12-07T01:54:11;99582.50;;;4.79;96.26
27623;BME280;15041;45.334;5.622;2023-12-07T01:56:39;99588.41;;;4.50;97.10
27623;BME280;15041;45.334;5.622;2023-12-07T01:59:06;99601.16;;;4.86;98.06
27623;BME280;15041;45.334;5.622;2023-12-07T02:01:34;99592.13;;;4.49;97.38
27623;BME280;15041;45.334;5.622;2023-12-07T02:04:01;99596.94;;;4.65;97.10
27623;BME280;15041;45.334;5.622;2023-12-07T02:06:28;99595.03;;;5.10;93.75
27623;BME280;15041;45.334;5.622;2023-12-07T02:08:55;99593.44;;;5.02;92.18
27623;BME280;15041;45.334;5.622;2023-12-07T02:11:24;99591.63;;;5.27;92.66
27623;BME280;15041;45.334;5.622;2023-12-07T02:13:51;99578.00;;;4.73;92.87
27623;BME280;15041;45.334;5.622;2023-12-07T02:16:29;99593.53;;;4.89;95.58
27623;BME280;15041;45.334;5.622;2023-12-07T02:19:05;99581.34;;;5.24;92.53
27623;BME280;15041;45.334;5.622;2023-12-07T02:21:41;99574.34;;;5.23;91.79
27623;BME280;15041;45.334;5.622;2023-12-07T02:24:11;99574.31;;;4.74;93.44
27623;BME280;15041;45.334;5.622;2023-12-07T02:26:45;99570.13;;;4.85;96.27
27623;BME280;15041;45.334;5.622;2023-12-07T02:29:13;99560.22;;;4.85;95.20
27623;BME280;15041;45.334;5.622;2023-12-07T02:31:40;99560.56;;;4.95;95.25
27623;BME280;15041;45.334;5.622;2023-12-07T02:34:07;99567.44;;;5.16;93.39
27623;BME280;15041;45.334;5.622;2023-12-07T02:36:36;99572.94;;;4.96;93.80
27623;BME280;15041;45.334;5.622;2023-12-07T02:39:05;99571.28;;;4.20;95.99
27623;BME280;15041;45.334;5.622;2023-12-07T02:41:34;99567.78;;;4.64;96.36
27623;BME280;15041;45.334;5.622;2023-12-07T02:44:04;99571.25;;;4.27;94.78
27623;BME280;15041;45.334;5.622;2023-12-07T02:46:31;99578.00;;;4.73;94.45
27623;BME280;15041;45.334;5.622;2023-12-07T02:48:59;99573.16;;;4.57;92.87
27623;BME280;15041;45.334;5.622;2023-12-07T02:51:26;99572.97;;;4.52;92.62
27623;BME280;15041;45.334;5.622;2023-12-07T02:53:53;99559.03;;;4.81;93.01
27623;BME280;15041;45.334;5.622;2023-12-07T02:56:20;99548.97;;;4.39;93.42
27623;BME280;15041;45.334;5.622;2023-12-07T02:58:48;99553.97;;;4.29;96.40
27623;BME280;15041;45.334;5.622;2023-12-07T03:01:16;99553.22;;;4.09;99.11
27623;BME280;15041;45.334;5.622;2023-12-07T03:03:44;99551.78;;;4.51;97.99
27623;BME280;15041;45.334;5.622;2023-12-07T03:06:11;99546.94;;;5.03;93.07
27623;BME280;15041;45.334;5.622;2023-12-07T03:08:38;99549.41;;;4.43;95.68
27623;BME280;15041;45.334;5.622;2023-12-07T03:11:06;99544.16;;;4.10;98.86
27623;BME280;15041;45.334;5.622;2023-12-07T03:13:33;99540.50;;;4.11;100.00
27623;BME280;15041;45.334;5.622;2023-12-07T03:16:00;99545.88;;;3.98;98.79
27623;BME280;15041;45.334;5.622;2023-12-07T03:18:28;99540.75;;;4.41;97.34
27623;BME280;15041;45.334;5.622;2023-12-07T03:20:55;99535.25;;;4.67;94.71
27623;BME280;15041;45.334;5.622;2023-12-07T03:23:23;99545.22;;;4.53;95.53
27623;BME280;15041;45.334;5.622;2023-12-07T03:25:50;99527.91;;;4.62;92.46
27623;BME280;15041;45.334;5.622;2023-12-07T03:28:17;99532.13;;;4.45;94.77
27623;BME280;15041;45.334;5.622;2023-12-07T03:30:44;99517.63;;;4.59;94.56
27623;BME280;15041;45.334;5.622;2023-12-07T03:33:11;99532.41;;;4.62;93.76
27623;BME280;15041;45.334;5.622;2023-12-07T03:35:40;99524.91;;;4.46;93.30
27623;BME280;15041;45.334;5.622;2023-12-07T03:38:07;99519.84;;;4.31;94.74
27623;BME280;15041;45.334;5.622;2023-12-07T03:40:35;99525.25;;;4.18;95.50
27623;BME280;15041;45.334;5.622;2023-12-07T03:43:02;99529.41;;;4.01;94.91
27623;BME280;15041;45.334;5.622;2023-12-07T03:45:30;99532.75;;;3.90;96.18
27623;BME280;15041;45.334;5.622;2023-12-07T03:47:57;99535.31;;;3.53;99.23
27623;BME280;15041;45.334;5.622;2023-12-07T03:50:24;99536.44;;;3.89;98.27
27623;BME280;15041;45.334;5.622;2023-12-07T03:52:52;99550.88;;;3.75;99.02
27623;BME280;15041;45.334;5.622;2023-12-07T03:55:19;99543.09;;;3.61;100.00
27623;BME280;15041;45.334;5.622;2023-12-07T03:57:47;99554.50;;;4.00;98.38
27623;BME280;15041;45.334;5.622;2023-12-07T04:00:14;99542.13;;;4.12;99.38
27623;BME280;15041;45.334;5.622;2023-12-07T04:02:41;99530.13;;;4.28;95.91
27623;BME280;15041;45.334;5.622;2023-12-07T04:05:09;99538.47;;;4.00;96.51
27623;BME280;15041;45.334;5.622;2023-12-07T04:07:38;99528.09;;;3.66;99.78
27623;BME280;15041;45.334;5.622;2023-12-07T04:10:07;99527.94;;;3.55;100.00
27623;BME280;15041;45.334;5.622;2023-12-07T04:12:35;99521.19;;;4.09;98.99
27623;BME280;15041;45.334;5.622;2023-12-07T04:15:02;99527.56;;;4.08;93.76
27623;BME280;15041;45.334;5.622;2023-12-07T04:17:29;99524.09;;;4.01;96.42
27623;BME280;15041;45.334;5.622;2023-12-07T04:19:56;99533.50;;;4.04;94.17
27623;BME280;15041;45.334;5.622;2023-12-07T04:22:23;99525.31;;;4.05;94.12
27623;BME280;15041;45.334;5.622;2023-12-07T04:24:51;99531.63;;;4.17;92.98
27623;BME280;15041;45.334;5.622;2023-12-07T04:27:19;99540.38;;;4.37;91.57
27623;BME280;15041;45.334;5.622;2023-12-07T04:29:46;99549.03;;;4.26;91.72
27623;BME280;15041;45.334;5.622;2023-12-07T04:32:14;99547.03;;;4.22;91.71
27623;BME280;15041;45.334;5.622;2023-12-07T04:34:41;99550.50;;;4.22;94.48
27623;BME280;15041;45.334;5.622;2023-12-07T04:37:08;99556.75;;;4.47;92.27
27623;BME280;15041;45.334;5.622;2023-12-07T04:39:36;99565.00;;;4.39;91.87
27623;BME280;15041;45.334;5.622;2023-12-07T04:42:04;99571.00;;;3.71;95.80
27623;BME280;15041;45.334;5.622;2023-12-07T04:44:32;99573.28;;;4.25;93.54
27623;BME280;15041;45.334;5.622;2023-12-07T04:46:59;99574.88;;;3.82;94.51
27623;BME280;15041;45.334;5.622;2023-12-07T04:49:26;99579.28;;;4.20;93.30
27623;BME280;15041;45.334;5.622;2023-12-07T04:51:54;99570.34;;;4.39;89.83
27623;BME280;15041;45.334;5.622;2023-12-07T04:54:21;99584.88;;;4.06;92.26
27623;BME280;15041;45.334;5.622;2023-12-07T04:56:48;99574.06;;;3.68;90.82
27623;BME280;15041;45.334;5.622;2023-12-07T04:59:15;99575.50;;;3.84;93.81
27623;BME280;15041;45.334;5.622;2023-12-07T05:01:44;99579.38;;;3.94;92.13
27623;BME280;15041;45.334;5.622;2023-12-07T05:04:12;99583.88;;;3.94;91.33
27623;BME280;15041;45.334;5.622;2023-12-07T05:06:40;99587.84;;;3.59;95.62
27623;BME280;15041;45.334;5.622;2023-12-07T05:09:07;99592.75;;;3.75;94.36
27623;BME280;15041;45.334;5.622;2023-12-07T05:11:36;99593.47;;;4.08;94.40
27623;BME280;15041;45.334;5.622;2023-12-07T05:14:04;99582.25;;;3.93;93.19
27623;BME280;15041;45.334;5.622;2023-12-07T05:16:31;99573.03;;;3.82;92.71
27623;BME280;15041;45.334;5.622;2023-12-07T05:19:00;99581.69;;;3.45;93.34
27623;BME280;15041;45.334;5.622;2023-12-07T05:21:28;99591.06;;;3.93;93.22
27623;BME280;15041;45.334;5.622;2023-12-07T05:23:55;99582.09;;;3.75;93.33
27623;BME280;15041;45.334;5.622;2023-12-07T05:26:22;99590.34;;;3.47;93.86
27623;BME280;15041;45.334;5.622;2023-12-07T05:28:49;99586.00;;;3.40;96.32
27623;BME280;15041;45.334;5.622;2023-12-07T05:31:17;99591.13;;;3.22;95.55
27623;BME280;15041;45.334;5.622;2023-12-07T05:33:44;99590.09;;;3.49;96.32
27623;BME280;15041;45.334;5.622;2023-12-07T05:36:12;99600.16;;;3.60;93.67
27623;BME280;15041;45.334;5.622;2023-12-07T05:38:40;99594.72;;;4.05;91.29
27623;BME280;15041;45.334;5.622;2023-12-07T05:41:07;99591.50;;;3.90;92.06
27623;BME280;15041;45.334;5.622;2023-12-07T05:43:35;99598.75;;;4.27;89.59
27623;BME280;15041;45.334;5.622;2023-12-07T05:46:02;99603.63;;;3.73;89.94
27623;BME280;15041;45.334;5.622;2023-12-07T05:48:29;99601.00;;;3.60;93.32
27623;BME280;15041;45.334;5.622;2023-12-07T05:50:57;99599.13;;;3.41;94.66
27623;BME280;15041;45.334;5.622;2023-12-07T05:53:25;99599.72;;;3.82;94.75
27623;BME280;15041;45.334;5.622;2023-12-07T05:55:53;99593.94;;;3.98;91.93
27623;BME280;15041;45.334;5.622;2023-12-07T05:58:21;99603.75;;;4.11;90.60
27623;BME280;15041;45.334;5.622;2023-12-07T06:00:48;99603.03;;;3.58;91.87
27623;BME280;15041;45.334;5.622;2023-12-07T06:03:15;99610.00;;;3.59;94.33
27623;BME280;15041;45.334;5.622;2023-12-07T06:05:42;99605.09;;;3.50;91.89
27623;BME280;15041;45.334;5.622;2023-12-07T06:08:10;99596.47;;;3.41;95.82
27623;BME280;15041;45.334;5.622;2023-12-07T06:10:39;99603.81;;;3.91;92.91
27623;BME280;15041;45.334;5.622;2023-12-07T06:13:06;99607.28;;;3.98;90.87
27623;BME280;15041;45.334;5.622;2023-12-07T06:15:33;99596.47;;;3.41;94.87
27623;BME280;15041;45.334;5.622;2023-12-07T06:18:01;99600.34;;;3.58;95.21
27623;BME280;15041;45.334;5.622;2023-12-07T06:20:29;99608.56;;;3.31;96.59
27623;BME280;15041;45.334;5.622;2023-12-07T06:22:56;99604.28;;;3.36;98.41
27623;BME280;15041;45.334;5.622;2023-12-07T06:25:23;99606.34;;;3.47;97.87
27623;BME280;15041;45.334;5.622;2023-12-07T06:27:52;99601.78;;;3.67;96.22
27623;BME280;15041;45.334;5.622;2023-12-07T06:30:19;99600.13;;;3.79;93.62
27623;BME280;15041;45.334;5.622;2023-12-07T06:32:46;99595.19;;;3.83;92.86
27623;BME280;15041;45.334;5.622;2023-12-07T06:35:13;99593.38;;;3.64;92.94
27623;BME280;15041;45.334;5.622;2023-12-07T06:37:41;99603.88;;;3.39;94.64
27623;BME280;15041;45.334;5.622;2023-12-07T06:40:09;99591.09;;;3.67;92.10
27623;BME280;15041;45.334;5.622;2023-12-07T06:42:37;99589.06;;;3.69;92.84
27623;BME280;15041;45.334;5.622;2023-12-07T06:45:06;99584.16;;;3.53;91.34
27623;BME280;15041;45.334;5.622;2023-12-07T06:47:36;99586.59;;;3.68;89.83
27623;BME280;15041;45.334;5.622;2023-12-07T06:50:05;99574.31;;;3.34;91.58
27623;BME280;15041;45.334;5.622;2023-12-07T06:52:34;99569.19;;;3.52;91.47
27623;BME280;15041;45.334;5.622;2023-12-07T06:55:01;99567.75;;;3.56;90.27
27623;BME280;15041;45.334;5.622;2023-12-07T06:57:28;99562.84;;;3.14;92.50
27623;BME280;15041;45.334;5.622;2023-12-07T06:59:55;99570.22;;;3.12;98.00
27623;BME280;15041;45.334;5.622;2023-12-07T07:02:24;99571.84;;;3.46;96.79
27623;BME280;15041;45.334;5.622;2023-12-07T07:04:51;99575.53;;;3.12;97.92
27623;BME280;15041;45.334;5.622;2023-12-07T07:07:18;99575.53;;;3.12;98.37
27623;BME280;15041;45.334;5.622;2023-12-07T07:09:46;99581.28;;;3.48;95.41
27623;BME280;15041;45.334;5.622;2023-12-07T07:12:13;99597.31;;;3.42;96.29
27623;BME280;15041;45.334;5.622;2023-12-07T07:14:40;99599.97;;;3.42;95.28
27623;BME280;15041;45.334;5.622;2023-12-07T07:17:07;99608.38;;;3.26;94.93
27623;BME280;15041;45.334;5.622;2023-12-07T07:19:36;99617.38;;;3.05;95.37
27623;BME280;15041;45.334;5.622;2023-12-07T07:22:03;99627.22;;;3.05;96.99
27623;BME280;15041;45.334;5.622;2023-12-07T07:24:30;99631.56;;;3.45;96.41
27623;BME280;15041;45.334;5.622;2023-12-07T07:26:58;99636.28;;;3.69;92.80
27623;BME280;15041;45.334;5.622;2023-12-07T07:29:25;99633.00;;;3.67;90.96
27623;BME280;15041;45.334;5.622;2023-12-07T07:31:53;99639.13;;;3.80;88.70
27623;BME280;15041;45.334;5.622;2023-12-07T07:34:21;99637.91;;;3.50;87.59
27623;BME280;15041;45.334;5.622;2023-12-07T07:36:50;99624.78;;;3.36;89.23
27623;BME280;15041;45.334;5.622;2023-12-07T07:39:17;99605.50;;;3.53;89.45
27623;BME280;15041;45.334;5.622;2023-12-07T07:41:44;99584.34;;;3.58;87.10
27623;BME280;15041;45.334;5.622;2023-12-07T07:44:11;99588.59;;;3.85;85.53
27623;BME280;15041;45.334;5.622;2023-12-07T07:46:40;99580.88;;;3.71;85.80
27623;BME280;15041;45.334;5.622;2023-12-07T07:49:08;99562.78;;;3.66;86.17
27623;BME280;15041;45.334;5.622;2023-12-07T07:51:35;99567.34;;;3.40;90.37
27623;BME280;15041;45.334;5.622;2023-12-07T07:54:04;99564.88;;;3.64;90.76
27623;BME280;15041;45.334;5.622;2023-12-07T07:56:31;99552.13;;;3.66;90.28
27623;BME280;15041;45.334;5.622;2023-12-07T07:58:58;99530.72;;;3.79;89.31
27623;BME280;15041;45.334;5.622;2023-12-07T08:01:26;99524.66;;;3.33;90.42
27623;BME280;15041;45.334;5.622;2023-12-07T08:03:53;99516.47;;;3.35;93.08
27623;BME280;15041;45.334;5.622;2023-12-07T08:06:20;99509.53;;;3.08;93.99
27623;BME280;15041;45.334;5.622;2023-12-07T08:08:48;99506.63;;;3.35;93.72
27623;BME280;15041;45.334;5.622;2023-12-07T08:11:17;99495.88;;;3.68;91.14
27623;BME280;15041;45.334;5.622;2023-12-07T08:13:44;99492.63;;;3.46;92.46
27623;BME280;15041;45.334;5.622;2023-12-07T08:16:11;99486.56;;;3.20;93.26
27623;BME280;15041;45.334;5.622;2023-12-07T08:18:38;99481.16;;;3.52;92.11
27623;BME280;15041;45.334;5.622;2023-12-07T08:21:06;99488.06;;;3.66;90.35
27623;BME280;15041;45.334;5.622;2023-12-07T08:23:34;99465.97;;;3.46;89.72
27623;BME280;15041;45.334;5.622;2023-12-07T08:26:01;99467.47;;;3.16;92.56
27623;BME280;15041;45.334;5.622;2023-12-07T08:28:30;99469.66;;;3.52;92.18
27623;BME280;15041;45.334;5.622;2023-12-07T08:30:57;99482.38;;;3.56;89.71
27623;BME280;15041;45.334;5.622;2023-12-07T08:33:25;99484.88;;;3.25;90.04
27623;BME280;15041;45.334;5.622;2023-12-07T08:35:52;99478.28;;;3.34;91.06
27623;BME280;15041;45.334;5.622;2023-12-07T08:38:20;99473.31;;;3.57;88.57
27623;BME280;15041;45.334;5.622;2023-12-07T08:40:48;99476.63;;;3.46;87.93
27623;BME280;15041;45.334;5.622;2023-12-07T08:43:16;99477.75;;;3.76;87.47
27623;BME280;15041;45.334;5.622;2023-12-07T08:45:44;99455.59;;;3.82;86.23
27623;BME280;15041;45.334;5.622;2023-12-07T08:48:11;99471.28;;;3.46;88.31
27623;BME280;15041;45.334;5.622;2023-12-07T08:50:38;99477.81;;;3.63;86.41
27623;BME280;15041;45.334;5.622;2023-12-07T08:53:06;99485.63;;;3.58;84.66
27623;BME280;15041;45.334;5.622;2023-12-07T08:55:33;99499.56;;;3.73;84.20
27623;BME280;15041;45.334;5.622;2023-12-07T08:58:00;99511.81;;;3.87;81.91
27623;BME280;15041;45.334;5.622;2023-12-07T09:00:30;99527.50;;;3.64;87.63
27623;BME280;15041;45.334;5.622;2023-12-07T09:02:58;99546.72;;;3.86;86.64
27623;BME280;15041;45.334;5.622;2023-12-07T09:05:25;99538.09;;;3.90;86.79
27623;BME280;15041;45.334;5.622;2023-12-07T09:07:53;99540.56;;;3.85;85.11
27623;BME280;15041;45.334;5.622;2023-12-07T09:10:20;99542.94;;;4.19;85.99
27623;BME280;15041;45.334;5.622;2023-12-07T09:12:47;99539.63;;;4.92;84.15
27623;BME280;15041;45.334;5.622;2023-12-07T09:15:14;99550.06;;;5.25;81.71
27623;BME280;15041;45.334;5.622;2023-12-07T09:17:41;99537.44;;;5.56;80.18
27623;BME280;15041;45.334;5.622;2023-12-07T09:20:11;99552.59;;;5.62;77.43
27623;BME280;15041;45.334;5.622;2023-12-07T09:22:39;99542.34;;;5.84;72.29
27623;BME280;15041;45.334;5.622;2023-12-07T09:25:08;99544.03;;;6.14;71.84
27623;BME280;15041;45.334;5.622;2023-12-07T09:27:36;99534.75;;;6.46;71.31
27623;BME280;15041;45.334;5.622;2023-12-07T09:30:04;99536.81;;;6.62;69.75
27623;BME280;15041;45.334;5.622;2023-12-07T09:32:32;99535.91;;;7.10;67.65
27623;BME280;15041;45.334;5.622;2023-12-07T09:35:04;99527.28;;;7.08;65.62
27623;BME280;15041;45.334;5.622;2023-12-07T09:37:34;99508.84;;;7.23;63.56
27623;BME280;15041;45.334;5.622;2023-12-07T09:40:01;99499.63;;;7.07;64.46
27623;BME280;15041;45.334;5.622;2023-12-07T09:42:30;99501.63;;;7.12;62.59
27623;BME280;15041;45.334;5.622;2023-12-07T09:44:58;99512.81;;;7.32;63.22
27623;BME280;15041;45.334;5.622;2023-12-07T09:47:26;99515.88;;;7.47;62.25
27623;BME280;15041;45.334;5.622;2023-12-07T09:49:54;99518.75;;;7.68;60.68
27623;BME280;15041;45.334;5.622;2023-12-07T09:52:21;99515.84;;;7.93;61.06
27623;BME280;15041;45.334;5.622;2023-12-07T09:54:51;99516.75;;;8.10;59.30
27623;BME280;15041;45.334;5.622;2023-12-07T09:57:19;99506.13;;;8.43;59.92
27623;BME280;15041;45.334;5.622;2023-12-07T09:59:46;99503.53;;;8.76;60.05
27623;BME280;15041;45.334;5.622;2023-12-07T10:02:14;99491.88;;;8.87;56.58
27623;BME280;15041;45.334;5.622;2023-12-07T10:04:41;99490.59;;;9.06;55.97
27623;BME280;15041;45.334;5.622;2023-12-07T10:07:08;99488.31;;;9.31;54.50
27623;BME280;15041;45.334;5.622;2023-12-07T10:09:38;99485.78;;;9.08;54.25
27623;BME280;15041;45.334;5.622;2023-12-07T10:12:07;99481.63;;;9.17;53.97
27623;BME280;15041;45.334;5.622;2023-12-07T10:14:36;99481.91;;;9.53;52.62
27623;BME280;15041;45.334;5.622;2023-12-07T10:17:05;99488.63;;;9.51;51.18
27623;BME280;15041;45.334;5.622;2023-12-07T10:19:32;99488.72;;;9.39;52.55
27623;BME280;15041;45.334;5.622;2023-12-07T10:21:59;99467.78;;;9.84;51.62
27623;BME280;15041;45.334;5.622;2023-12-07T10:24:26;99454.88;;;9.86;50.06
27623;BME280;15041;45.334;5.622;2023-12-07T10:26:54;99444.56;;;10.00;50.42
27623;BME280;15041;45.334;5.622;2023-12-07T10:29:24;99446.69;;;9.98;50.68
27623;BME280;15041;45.334;5.622;2023-12-07T10:32:00;99436.38;;;9.95;50.04
27623;BME280;15041;45.334;5.622;2023-12-07T10:34:27;99436.38;;;9.95;50.17
27623;BME280;15041;45.334;5.622;2023-12-07T10:36:54;99441.63;;;10.23;48.12
27623;BME280;15041;45.334;5.622;2023-12-07T10:39:23;99429.75;;;10.24;48.25
27623;BME280;15041;45.334;5.622;2023-12-07T10:41:54;99444.56;;;10.00;48.39
27623;BME280;15041;45.334;5.622;2023-12-07T10:44:26;99453.94;;;9.76;48.60
27623;BME280;15041;45.334;5.622;2023-12-07T10:46:55;99449.75;;;9.47;49.86
27623;BME280;15041;45.334;5.622;2023-12-07T10:49:25;99451.44;;;9.15;51.20
27623;BME280;15041;45.334;5.622;2023-12-07T10:51:58;99434.63;;;9.24;50.45
27623;BME280;15041;45.334;5.622;2023-12-07T10:54:33;99426.59;;;9.29;50.37
27623;BME280;15041;45.334;5.622;2023-12-07T10:57:06;99430.06;;;9.25;50.79
27623;BME280;15041;45.334;5.622;2023-12-07T10:59:37;99421.84;;;9.15;50.16
27623;BME280;15041;45.334;5.622;2023-12-07T11:02:06;99433.09;;;9.12;50.20
27623;BME280;15041;45.334;5.622;2023-12-07T11:04:35;99426.09;;;9.49;48.52
27623;BME280;15041;45.334;5.622;2023-12-07T11:07:06;99419.00;;;9.43;49.58
27623;BME280;15041;45.334;5.622;2023-12-07T11:09:41;99404.03;;;9.52;50.30
27623;BME280;15041;45.334;5.622;2023-12-07T11:12:17;99394.28;;;9.89;50.67
27623;BME280;15041;45.334;5.622;2023-12-07T11:14:47;99387.66;;;10.01;49.79
27623;BME280;15041;45.334;5.622;2023-12-07T11:17:15;99375.97;;;9.48;48.90
27623;BME280;15041;45.334;5.622;2023-12-07T11:19:44;99371.13;;;9.71;48.83
27623;BME280;15041;45.334;5.622;2023-12-07T11:22:12;99372.38;;;9.21;48.17
27623;BME280;15041;45.334;5.622;2023-12-07T11:24:52;99368.88;;;9.42;48.76
27623;BME280;15041;45.334;5.622;2023-12-07T11:27:21;99367.00;;;9.64;48.30
27623;BME280;15041;45.334;5.622;2023-12-07T11:29:50;99348.66;;;9.61;48.97
27623;BME280;15041;45.334;5.622;2023-12-07T11:32:18;99338.41;;;9.58;50.10
27623;BME280;15041;45.334;5.622;2023-12-07T11:34:45;99332.38;;;9.51;48.34
27623;BME280;15041;45.334;5.622;2023-12-07T11:37:15;99327.25;;;9.28;48.70
27623;BME280;15041;45.334;5.622;2023-12-07T11:39:43;99331.09;;;9.15;51.48
27623;BME280;15041;45.334;5.622;2023-12-07T11:42:13;99334.31;;;8.96;51.11
27623;BME280;15041;45.334;5.622;2023-12-07T11:44:43;99327.03;;;9.13;49.06
27623;BME280;15041;45.334;5.622;2023-12-07T11:47:16;99316.75;;;9.10;50.21
27623;BME280;15041;45.334;5.622;2023-12-07T11:49:43;99317.31;;;9.12;50.53
27623;BME280;15041;45.334;5.622;2023-12-07T11:52:13;99310.81;;;8.91;50.30
27623;BME280;15041;45.334;5.622;2023-12-07T11:54:44;99310.50;;;9.47;48.92
27623;BME280;15041;45.334;5.622;2023-12-07T11:57:12;99297.44;;;9.34;49.49
27623;BME280;15041;45.334;5.622;2023-12-07T11:59:39;99287.84;;;9.43;50.25
27623;BME280;15041;45.334;5.622;2023-12-07T12:02:06;99284.81;;;9.61;48.79
27623;BME280;15041;45.334;5.622;2023-12-07T12:04:35;99282.84;;;9.57;48.62
27623;BME280;15041;45.334;5.622;2023-12-07T12:07:03;99281.09;;;9.67;48.81
27623;BME280;15041;45.334;5.622;2023-12-07T12:09:31;99286.22;;;9.69;49.42
27623;BME280;15041;45.334;5.622;2023-12-07T12:12:00;99287.41;;;9.30;50.77
27623;BME280;15041;45.334;5.622;2023-12-07T12:14:27;99284.00;;;9.18;49.65
27623;BME280;15041;45.334;5.622;2023-12-07T12:16:56;99269.53;;;9.45;49.28
27623;BME280;15041;45.334;5.622;2023-12-07T12:19:23;99267.53;;;9.57;47.63
27623;BME280;15041;45.334;5.622;2023-12-07T12:21:52;99252.34;;;9.25;47.87
27623;BME280;15041;45.334;5.622;2023-12-07T12:24:21;99224.97;;;9.11;48.91
27623;BME280;15041;45.334;5.622;2023-12-07T12:26:48;99215.19;;;8.84;51.38
27623;BME280;15041;45.334;5.622;2023-12-07T12:29:16;99209.50;;;9.02;50.73
27623;BME280;15041;45.334;5.622;2023-12-07T12:31:44;99218.09;;;8.99;50.23
27623;BME280;15041;45.334;5.622;2023-12-07T12:34:11;99229.66;;;9.21;50.53
27623;BME280;15041;45.334;5.622;2023-12-07T12:36:39;99232.53;;;9.36;50.26
27623;BME280;15041;45.334;5.622;2023-12-07T12:39:07;99230.78;;;9.25;49.88
27623;BME280;15041;45.334;5.622;2023-12-07T12:41:35;99230.66;;;9.63;49.36
27623;BME280;15041;45.334;5.622;2023-12-07T12:44:02;99243.03;;;9.85;48.50
27623;BME280;15041;45.334;5.622;2023-12-07T12:46:29;99243.13;;;9.69;48.92
27623;BME280;15041;45.334;5.622;2023-12-07T12:48:58;99257.22;;;9.28;51.65
27623;BME280;15041;45.334;5.622;2023-12-07T12:51:26;99249.84;;;9.66;48.64
27623;BME280;15041;45.334;5.622;2023-12-07T12:53:54;99243.00;;;9.32;48.99
27623;BME280;15041;45.334;5.622;2023-12-07T12:56:23;99263.59;;;9.22;48.50
27623;BME280;15041;45.334;5.622;2023-12-07T12:58:52;99251.78;;;9.01;48.19
27623;BME280;15041;45.334;5.622;2023-12-07T13:01:22;99253.19;;;9.09;48.88
27623;BME280;15041;45.334;5.622;2023-12-07T13:03:49;99242.53;;;8.76;49.26
27623;BME280;15041;45.334;5.622;2023-12-07T13:06:17;99235.41;;;8.65;48.90
27623;BME280;15041;45.334;5.622;2023-12-07T13:08:46;99235.22;;;8.71;48.74
27623;BME280;15041;45.334;5.622;2023-12-07T13:11:15;99214.38;;;8.62;49.57
27623;BME280;15041;45.334;5.622;2023-12-07T13:13:46;99222.91;;;8.37;50.76